KTVI/TVI METAR and TAF weather

Enter ICAO airport designator
Station Type Date Time Source
KTVI METAR 2019/06/17 06:35 UTC NOAA

KTVI 170635Z AUTO 00000KT 10SM CLR 21/20 A3005 RMK AO2


Station Type Date Time Source
KTVI Decoded METAR 2019/06/17 06:35 UTC NOAA

Thomasville, GA, United States (KTVI) 30-54-06N 083-52-53W
Jun 17, 2019 - 02:35 AM EDT / 2019.06.17 0635 UTC
Wind: Calm:0
Visibility: 10 mile(s):0
Sky conditions: clear
Temperature: 69 F (21 C)
Dew Point: 68 F (20 C)
Relative Humidity: 94%
Pressure (altimeter): 30.05 in. Hg (1017 hPa)
ob: KTVI 170635Z AUTO 00000KT 10SM CLR 21/20 A3005 RMK AO2
cycle: 6

Station Type Date Time Source
KTVI TAF UTC NOAA

Error!

Example: see airport list